Time;durP1;ratioP1;P1;durP2;ratioP2;P2;SDS_P1;SDS_P2;PMS_P1;PMS_P2;Temp;Humidity;BMP_temperature;BMP_pressure;BME280_temperature;BME280_humidity;BME280_pressure;Samples;Min_cycle;Max_cycle;Signal;HPM_P1;HPM_P2
2022/06/11 00:01:12;;;;;;;0.45;0.40;;;18.70;82.30;;;;;;5027247;28;20025;-74
2022/06/11 00:03:38;;;;;;;0.63;0.35;;;19.00;80.90;;;;;;5031417;28;20467;-75
2022/06/11 00:06:04;;;;;;;1.77;0.73;;;19.00;81.00;;;;;;5017207;28;20042;-75
2022/06/11 00:08:30;;;;;;;1.77;0.60;;;19.30;80.80;;;;;;5026643;28;20081;-75
2022/06/11 00:10:56;;;;;;;3.88;1.00;;;19.30;80.40;;;;;;5029963;28;20064;-75
2022/06/11 00:13:22;;;;;;;2.45;0.77;;;18.90;81.50;;;;;;5031499;28;20069;-74
2022/06/11 00:15:49;;;;;;;0.75;0.50;;;18.80;82.00;;;;;;5026559;28;20107;-75
2022/06/11 00:18:16;;;;;;;1.10;0.40;;;18.40;83.30;;;;;;5022976;28;20061;-74
2022/06/11 00:20:42;;;;;;;0.65;0.47;;;18.20;83.70;;;;;;5030143;28;20033;-75
2022/06/11 00:23:07;;;;;;;0.98;0.40;;;18.10;84.20;;;;;;5031688;28;20578;-74
2022/06/11 00:25:34;;;;;;;1.25;0.57;;;18.10;84.10;;;;;;5026864;28;20037;-76
2022/06/11 00:28:01;;;;;;;1.58;0.60;;;18.30;83.20;;;;;;5025212;28;20088;-75
2022/06/11 00:30:27;;;;;;;1.80;0.55;;;18.30;83.70;;;;;;5033053;28;20054;-75
2022/06/11 00:32:55;;;;;;;1.33;0.60;;;18.00;84.30;;;;;;5031425;28;20036;-75
2022/06/11 00:35:21;;;;;;;2.03;0.60;;;17.90;84.70;;;;;;5028740;28;20029;-75
2022/06/11 00:37:47;;;;;;;2.83;1.48;;;17.70;85.40;;;;;;5029023;28;20635;-75
2022/06/11 00:40:17;;;;;;;1.15;0.35;;;17.90;84.80;;;;;;5027103;28;20029;-75
2022/06/11 00:42:42;;;;;;;1.35;0.73;;;17.90;84.30;;;;;;5027583;28;20048;-75
2022/06/11 00:45:12;;;;;;;2.60;0.70;;;18.20;83.60;;;;;;5034466;28;20501;-75
2022/06/11 00:47:38;;;;;;;1.38;0.70;;;18.10;84.20;;;;;;5028766;28;20472;-75
2022/06/11 00:50:26;;;;;;;3.03;0.77;;;18.30;83.20;;;;;;5025290;28;20041;-74
2022/06/11 00:52:52;;;;;;;2.70;0.50;;;18.20;83.60;;;;;;5027474;28;20043;-75
2022/06/11 00:55:24;;;;;;;1.33;0.60;;;18.10;83.80;;;;;;5028391;28;20072;-74
2022/06/11 00:58:06;;;;;;;1.88;0.50;;;17.90;84.60;;;;;;5033132;28;20036;-75
2022/06/11 01:00:43;;;;;;;2.78;0.98;;;17.90;83.80;;;;;;5029416;28;20025;-74
2022/06/11 01:03:17;;;;;;;1.73;0.52;;;18.00;84.10;;;;;;5027943;28;20040;-75
2022/06/11 01:05:47;;;;;;;2.03;0.85;;;18.10;83.80;;;;;;5022228;28;20036;-75
2022/06/11 01:08:24;;;;;;;7.50;0.90;;;18.40;83.00;;;;;;5025753;28;20045;-75
2022/06/11 01:11:02;;;;;;;4.18;0.70;;;18.40;83.10;;;;;;5023177;28;20475;-74
2022/06/11 01:13:34;;;;;;;2.67;0.43;;;18.20;84.10;;;;;;5021734;28;20048;-74
2022/06/11 01:16:26;;;;;;;1.20;0.57;;;18.20;83.30;;;;;;5023321;28;20037;-75
2022/06/11 01:19:30;;;;;;;2.53;0.55;;;18.20;84.00;;;;;;5030998;28;20033;-75
2022/06/11 01:22:29;;;;;;;2.80;0.93;;;17.90;84.50;;;;;;5021869;28;20049;-75
2022/06/11 01:25:11;;;;;;;0.70;0.47;;;17.90;84.50;;;;;;5018250;28;20116;-74
2022/06/11 01:27:54;;;;;;;1.75;0.90;;;17.90;84.30;;;;;;5027828;28;20029;-75
2022/06/11 01:30:30;;;;;;;0.98;0.50;;;18.10;84.30;;;;;;5017195;28;20051;-75
2022/06/11 01:33:10;;;;;;;0.98;0.57;;;17.80;84.90;;;;;;5018952;28;20057;-75
2022/06/11 01:36:13;;;;;;;1.67;0.70;;;18.20;84.10;;;;;;5032670;28;20074;-75
2022/06/11 01:38:45;;;;;;;2.10;0.70;;;18.20;83.60;;;;;;5026034;28;20569;-75
2022/06/11 01:41:22;;;;;;;1.75;0.70;;;18.60;82.60;;;;;;5031596;28;20120;-75
2022/06/11 01:43:51;;;;;;;1.95;0.70;;;18.70;82.20;;;;;;5029723;28;20079;-75
2022/06/11 01:46:27;;;;;;;2.05;0.55;;;18.50;82.70;;;;;;5028501;28;21045;-74
2022/06/11 01:49:01;;;;;;;2.35;0.70;;;18.40;83.10;;;;;;5027580;28;20045;-75
2022/06/11 01:51:30;;;;;;;0.43;0.35;;;18.50;82.80;;;;;;5017623;28;20038;-75
2022/06/11 01:54:34;;;;;;;3.00;0.82;;;18.40;83.60;;;;;;5017511;28;20156;-75
2022/06/11 01:57:11;;;;;;;2.05;0.80;;;18.00;84.10;;;;;;5025251;28;20025;-75
2022/06/11 02:00:00;;;;;;;1.38;0.63;;;17.90;85.10;;;;;;5028493;28;20039;-75
2022/06/11 02:03:00;;;;;;;1.25;0.55;;;18.00;84.00;;;;;;5023936;28;20037;-75
2022/06/11 02:05:44;;;;;;;3.33;1.00;;;18.10;84.10;;;;;;5027281;28;20057;-74
2022/06/11 02:08:19;;;;;;;2.47;0.93;;;18.20;83.80;;;;;;5024019;28;20037;-74
2022/06/11 02:11:03;;;;;;;0.90;0.60;;;18.20;83.50;;;;;;5017407;28;20029;-74
2022/06/11 02:13:46;;;;;;;5.17;0.97;;;18.00;84.20;;;;;;5022128;28;20506;-74
2022/06/11 02:16:26;;;;;;;3.72;0.70;;;17.80;85.00;;;;;;5021401;28;20041;-74
2022/06/11 02:18:54;;;;;;;1.55;0.47;;;17.90;84.90;;;;;;5029487;28;20033;-74
2022/06/11 02:21:33;;;;;;;3.17;0.90;;;17.70;85.00;;;;;;5021944;28;20040;-74
2022/06/11 02:24:10;;;;;;;1.20;0.70;;;17.60;85.50;;;;;;5028875;28;20633;-74
2022/06/11 02:26:44;;;;;;;2.83;0.95;;;17.70;85.10;;;;;;5023463;28;20038;-74
2022/06/11 02:29:12;;;;;;;;;;;17.60;85.30;;;;;;5034540;28;20049;-74
2022/06/11 02:31:49;;;;;;;2.17;0.95;;;17.80;85.20;;;;;;5024366;28;19918;-75
2022/06/11 02:34:18;;;;;;;1.70;0.77;;;18.00;84.40;;;;;;5032127;28;20434;-74
2022/06/11 02:36:55;;;;;;;3.97;1.38;;;17.90;84.20;;;;;;5025983;28;20038;-74
2022/06/11 02:39:22;;;;;;;3.72;0.70;;;18.00;84.10;;;;;;5032994;28;20488;-75
2022/06/11 02:41:48;;;;;;;0.85;0.60;;;17.90;84.90;;;;;;5032346;28;20041;-75
2022/06/11 02:44:14;;;;;;;2.63;0.52;;;17.70;85.30;;;;;;5028830;28;20036;-74
2022/06/11 02:46:43;;;;;;;2.92;0.85;;;17.50;86.30;;;;;;5024257;28;20057;-74
2022/06/11 02:49:21;;;;;;;2.15;0.77;;;17.50;85.80;;;;;;5029838;28;20025;-74
2022/06/11 02:51:49;;;;;;;2.28;0.73;;;17.70;85.30;;;;;;5028776;28;20541;-74
2022/06/11 02:54:16;;;;;;;1.60;0.68;;;17.50;85.70;;;;;;5027394;28;20033;-75
2022/06/11 02:56:42;;;;;;;2.22;0.85;;;17.60;85.70;;;;;;5030894;28;20069;-74
2022/06/11 02:59:08;;;;;;;1.45;0.50;;;17.70;85.60;;;;;;5028891;28;20495;-74
2022/06/11 03:01:34;;;;;;;3.42;1.30;;;17.60;85.60;;;;;;5023559;28;20034;-74
2022/06/11 03:04:01;;;;;;;1.60;0.73;;;17.60;85.20;;;;;;5031803;28;20038;-74
2022/06/11 03:06:29;;;;;;;2.45;0.90;;;17.70;85.00;;;;;;5027536;28;20032;-74
2022/06/11 03:08:56;;;;;;;3.25;1.15;;;17.70;85.40;;;;;;5021949;28;20163;-74
2022/06/11 03:11:23;;;;;;;2.15;0.65;;;17.90;84.90;;;;;;5026608;28;20025;-74
2022/06/11 03:13:49;;;;;;;1.08;0.60;;;17.70;85.30;;;;;;5022296;28;20040;-73
2022/06/11 03:16:15;;;;;;;1.73;0.70;;;17.50;85.90;;;;;;5023840;28;20034;-74
2022/06/11 03:18:40;;;;;;;1.40;0.70;;;17.20;86.50;;;;;;5020207;28;20037;-74
2022/06/11 03:21:07;;;;;;;1.98;0.80;;;17.50;85.70;;;;;;5016391;28;20056;-73
2022/06/11 03:23:33;;;;;;;1.45;0.85;;;17.40;86.20;;;;;;5024625;28;20033;-75
2022/06/11 03:26:01;;;;;;;1.13;0.60;;;17.60;85.80;;;;;;5031252;28;20038;-74
2022/06/11 03:28:27;;;;;;;1.33;0.68;;;17.60;85.70;;;;;;5025914;28;20626;-74
2022/06/11 03:30:53;;;;;;;1.58;0.70;;;17.60;85.80;;;;;;5024053;28;20434;-74
2022/06/11 03:33:20;;;;;;;1.55;0.60;;;17.60;85.70;;;;;;5028440;28;20035;-74
2022/06/11 03:35:49;;;;;;;2.45;1.10;;;17.80;84.90;;;;;;5021165;28;20411;-73
2022/06/11 03:38:16;;;;;;;1.92;0.88;;;17.90;84.60;;;;;;5022818;28;20835;-74
2022/06/11 03:40:42;;;;;;;4.03;1.05;;;17.90;85.30;;;;;;5027492;28;20029;-74
2022/06/11 03:43:09;;;;;;;3.97;0.90;;;18.00;84.30;;;;;;5024585;28;20484;-74
2022/06/11 03:45:36;;;;;;;2.53;0.60;;;18.00;84.90;;;;;;5024464;28;20072;-74
2022/06/11 03:48:02;;;;;;;1.50;0.75;;;17.90;84.90;;;;;;5025156;28;20427;-74
2022/06/11 03:50:31;;;;;;;1.45;0.68;;;18.00;84.30;;;;;;5022734;28;20133;-74
2022/06/11 03:52:57;;;;;;;2.15;1.00;;;18.00;84.60;;;;;;5026978;28;20030;-74
2022/06/11 03:55:24;;;;;;;2.58;0.98;;;18.00;84.40;;;;;;5031803;28;20041;-74
2022/06/11 03:57:51;;;;;;;1.75;0.73;;;18.10;84.40;;;;;;5026351;28;20345;-74
2022/06/11 04:01:14;;;;;;;2.80;0.80;;;18.00;84.40;;;;;;5021015;28;20033;-74
2022/06/11 04:03:05;;;;;;;2.05;0.80;;;17.90;84.50;;;;;;5012168;28;20034;-74
2022/06/11 04:05:32;;;;;;;3.60;0.88;;;17.90;84.90;;;;;;5015400;28;20040;-74
2022/06/11 04:07:58;;;;;;;2.97;0.73;;;17.90;84.50;;;;;;5016541;28;20044;-74
2022/06/11 04:10:24;;;;;;;4.38;0.98;;;17.90;84.50;;;;;;5015443;28;20034;-74
2022/06/11 04:12:52;;;;;;;2.35;0.77;;;17.90;85.00;;;;;;5025596;28;20037;-74
2022/06/11 04:15:18;;;;;;;10.48;1.88;;;17.80;85.30;;;;;;5023579;28;20079;-74
2022/06/11 04:17:44;;;;;;;3.13;1.08;;;17.70;86.00;;;;;;5025493;28;20033;-74
2022/06/11 04:20:12;;;;;;;3.40;0.70;;;17.70;85.20;;;;;;5024224;28;20026;-74
2022/06/11 04:22:38;;;;;;;1.70;0.70;;;17.70;85.30;;;;;;5025641;28;20035;-74
2022/06/11 04:25:05;;;;;;;1.98;0.70;;;17.60;86.10;;;;;;5015618;28;21519;-74
2022/06/11 04:27:32;;;;;;;3.75;1.15;;;17.70;85.50;;;;;;5022940;28;20030;-74
2022/06/11 04:29:59;;;;;;;2.83;0.90;;;17.60;85.90;;;;;;5020380;28;20085;-73
2022/06/11 04:32:27;;;;;;;1.60;0.77;;;17.50;86.10;;;;;;5021845;28;20033;-74
2022/06/11 04:34:54;;;;;;;1.55;0.80;;;17.50;87.00;;;;;;5021024;28;20030;-73
2022/06/11 04:37:23;;;;;;;3.45;0.88;;;17.50;86.50;;;;;;5020639;28;20029;-74
2022/06/11 04:39:52;;;;;;;2.33;0.82;;;17.50;86.60;;;;;;5024901;28;20589;-73
2022/06/11 04:42:18;;;;;;;2.40;0.80;;;17.60;86.30;;;;;;5024132;28;20064;-74
2022/06/11 04:44:45;;;;;;;5.80;0.95;;;17.50;86.50;;;;;;5019660;28;20036;-74
2022/06/11 04:47:12;;;;;;;2.28;0.80;;;17.50;87.00;;;;;;5023189;28;20029;-74
2022/06/11 04:49:38;;;;;;;1.85;0.95;;;17.50;86.60;;;;;;5014889;28;20072;-73
2022/06/11 04:52:04;;;;;;;1.63;0.60;;;17.50;87.00;;;;;;5018938;28;20498;-74
2022/06/11 04:54:30;;;;;;;2.42;1.00;;;17.40;87.70;;;;;;5019570;28;20361;-74
2022/06/11 04:56:56;;;;;;;1.77;0.85;;;17.50;86.80;;;;;;5019331;28;20179;-74
2022/06/11 04:59:22;;;;;;;2.83;0.80;;;17.50;86.70;;;;;;5021193;28;20056;-74
2022/06/11 05:01:48;;;;;;;2.00;0.82;;;17.50;86.50;;;;;;5010317;28;20041;-74
2022/06/11 05:04:14;;;;;;;3.13;1.10;;;17.50;86.80;;;;;;5014281;28;20045;-74
2022/06/11 05:06:45;;;;;;;2.22;0.80;;;17.60;86.40;;;;;;5020054;28;20032;-73
2022/06/11 05:09:16;;;;;;;2.10;0.88;;;17.40;87.20;;;;;;5022189;28;20045;-74
2022/06/11 05:11:42;;;;;;;2.22;0.90;;;17.50;86.50;;;;;;5018218;28;20033;-73
2022/06/11 05:14:07;;;;;;;1.63;0.80;;;17.70;85.50;;;;;;5019429;28;20068;-74
2022/06/11 05:16:35;;;;;;;1.98;1.08;;;17.80;85.40;;;;;;5021848;28;20057;-74
2022/06/11 05:19:02;;;;;;;1.48;0.80;;;17.80;85.20;;;;;;5015811;28;20089;-74
2022/06/11 05:21:27;;;;;;;2.70;1.17;;;17.70;85.20;;;;;;5017638;28;20079;-73
2022/06/11 05:23:53;;;;;;;2.10;0.80;;;17.80;85.80;;;;;;5018452;28;20033;-73
2022/06/11 05:26:27;;;;;;;2.33;0.85;;;17.70;85.60;;;;;;5015157;28;20500;-74
2022/06/11 05:28:52;;;;;;;1.65;0.90;;;17.90;85.30;;;;;;5020846;28;20060;-74
2022/06/11 05:31:18;;;;;;;3.78;0.80;;;17.80;86.70;;;;;;5016999;28;20053;-74
2022/06/11 05:33:44;;;;;;;2.45;1.00;;;17.70;86.60;;;;;;5021405;28;20033;-74
2022/06/11 05:36:13;;;;;;;2.83;1.33;;;17.70;86.60;;;;;;5015895;28;20498;-73
2022/06/11 05:38:39;;;;;;;2.38;1.00;;;17.70;86.20;;;;;;5020695;28;20029;-75
2022/06/11 05:41:05;;;;;;;2.10;0.95;;;17.80;85.70;;;;;;5024355;28;20041;-74
2022/06/11 05:43:31;;;;;;;2.58;1.00;;;17.90;86.00;;;;;;5021267;28;20042;-74
2022/06/11 05:46:07;;;;;;;1.58;0.95;;;17.90;87.00;;;;;;5023779;28;20044;-73
2022/06/11 05:48:39;;;;;;;2.15;1.00;;;18.00;86.10;;;;;;5016915;28;20043;-74
2022/06/11 05:51:07;;;;;;;1.42;0.70;;;17.80;88.40;;;;;;5016812;28;20132;-74
2022/06/11 05:53:36;;;;;;;2.38;0.80;;;18.00;86.30;;;;;;5022430;28;20039;-75
2022/06/11 05:56:03;;;;;;;1.30;0.60;;;18.10;85.60;;;;;;5019940;28;20033;-75
2022/06/11 05:58:35;;;;;;;2.40;1.10;;;18.20;85.10;;;;;;5020527;28;20515;-75
2022/06/11 06:01:02;;;;;;;2.17;0.93;;;18.20;86.10;;;;;;5023270;28;20036;-75
2022/06/11 06:03:28;;;;;;;2.60;1.00;;;18.30;85.10;;;;;;5020241;28;20092;-74
2022/06/11 06:05:54;;;;;;;2.78;0.80;;;18.30;87.60;;;;;;5018552;28;20037;-74
2022/06/11 06:08:20;;;;;;;2.70;1.00;;;18.20;87.40;;;;;;5015072;28;20045;-74
2022/06/11 06:10:46;;;;;;;2.40;0.80;;;18.30;88.80;;;;;;5016526;28;20036;-75
2022/06/11 06:15:56;;;;;;;;;;;18.30;85.20;;;;;;5021430;28;20055;-75
2022/06/11 06:18:21;;;;;;;2.47;1.02;;;18.40;85.80;;;;;;5018199;28;20582;-74
2022/06/11 06:20:48;;;;;;;4.35;0.90;;;18.40;87.40;;;;;;5019999;28;20044;-75
2022/06/11 06:23:14;;;;;;;3.17;1.02;;;18.50;86.80;;;;;;5017323;28;20108;-75
2022/06/11 06:25:40;;;;;;;3.33;1.30;;;18.50;87.50;;;;;;5026875;28;20123;-74
2022/06/11 06:28:06;;;;;;;1.75;0.80;;;18.60;89.20;;;;;;5022869;28;20088;-73
2022/06/11 06:30:32;;;;;;;2.22;1.08;;;18.60;88.90;;;;;;5017250;28;20065;-73
2022/06/11 06:32:58;;;;;;;2.47;1.13;;;18.60;86.60;;;;;;5011033;28;20037;-73
2022/06/11 06:35:24;;;;;;;1.90;1.10;;;18.60;87.10;;;;;;5022845;28;20513;-73
2022/06/11 06:37:49;;;;;;;3.80;1.30;;;18.70;90.50;;;;;;5018220;28;20032;-73
2022/06/11 06:40:15;;;;;;;2.70;0.80;;;18.60;90.00;;;;;;5020857;28;20091;-73
2022/06/11 06:42:41;;;;;;;1.83;0.73;;;18.60;87.80;;;;;;5024531;28;20113;-73
2022/06/11 06:45:07;;;;;;;1.73;0.80;;;18.70;87.90;;;;;;5020467;28;20049;-73
2022/06/11 06:47:33;;;;;;;2.40;1.00;;;18.80;87.90;;;;;;5022332;28;20053;-73
2022/06/11 06:49:59;;;;;;;12.27;1.33;;;18.90;88.60;;;;;;5014819;28;20106;-73
2022/06/11 06:52:24;;;;;;;4.82;1.13;;;19.00;88.10;;;;;;5011720;28;20029;-73
2022/06/11 06:54:50;;;;;;;3.88;1.00;;;19.10;87.10;;;;;;5020287;28;20073;-73
2022/06/11 06:57:16;;;;;;;3.08;0.90;;;19.20;87.90;;;;;;5017191;28;20579;-74
2022/06/11 06:59:42;;;;;;;1.60;0.80;;;19.50;86.70;;;;;;5018339;28;20219;-73
2022/06/11 07:02:10;;;;;;;3.22;1.02;;;19.70;85.00;;;;;;5022010;28;20614;-73
2022/06/11 07:04:37;;;;;;;3.20;1.00;;;19.70;83.50;;;;;;5018667;28;20053;-73
2022/06/11 07:07:03;;;;;;;2.20;1.10;;;20.00;83.30;;;;;;5023688;28;20045;-73
2022/06/11 07:09:29;;;;;;;2.35;1.20;;;20.20;83.00;;;;;;5019002;28;20127;-74
2022/06/11 07:11:55;;;;;;;1.83;0.90;;;20.50;82.70;;;;;;5027455;28;21053;-74
2022/06/11 07:14:21;;;;;;;1.95;0.80;;;20.80;83.20;;;;;;5020218;28;20041;-73
2022/06/11 07:16:53;;;;;;;2.03;0.90;;;21.10;82.80;;;;;;5025629;28;20045;-73
2022/06/11 07:19:26;;;;;;;1.58;0.85;;;21.30;83.10;;;;;;5025603;28;20065;-73
2022/06/11 07:21:56;;;;;;;6.90;1.05;;;21.70;82.20;;;;;;5022749;28;20041;-74
2022/06/11 07:24:26;;;;;;;2.65;1.00;;;21.90;82.50;;;;;;5025889;28;20030;-74
2022/06/11 07:26:57;;;;;;;2.15;1.05;;;22.10;80.20;;;;;;5025587;28;20045;-74
2022/06/11 07:29:27;;;;;;;1.67;0.90;;;22.40;79.80;;;;;;5024291;28;20033;-75
2022/06/11 07:31:56;;;;;;;1.90;1.05;;;22.90;79.70;;;;;;5018575;28;20094;-77
2022/06/11 07:34:22;;;;;;;3.17;1.15;;;23.80;78.70;;;;;;5027734;28;20056;-76
2022/06/11 07:36:48;;;;;;;3.28;1.15;;;24.30;76.70;;;;;;5025588;28;20404;-76
2022/06/11 07:39:15;;;;;;;2.78;1.42;;;25.10;75.10;;;;;;5026832;28;20029;-74
2022/06/11 07:41:41;;;;;;;3.97;1.05;;;25.70;76.40;;;;;;5021812;28;20458;-74
2022/06/11 07:44:07;;;;;;;13.05;1.60;;;26.50;74.90;;;;;;5021963;28;20084;-73
2022/06/11 07:46:32;;;;;;;39.90;3.67;;;26.20;75.10;;;;;;5026788;28;20038;-73
2022/06/11 07:48:58;;;;;;;8.73;1.85;;;26.40;74.50;;;;;;5019886;28;20033;-72
2022/06/11 07:51:24;;;;;;;1.77;0.90;;;26.20;74.90;;;;;;5019347;28;20033;-72
2022/06/11 07:53:50;;;;;;;1.63;0.90;;;25.90;74.40;;;;;;5024647;28;20581;-73
2022/06/11 07:56:17;;;;;;;2.95;1.20;;;25.90;74.70;;;;;;5021656;28;20034;-72
2022/06/11 07:58:43;;;;;;;1.92;1.00;;;25.70;75.20;;;;;;5023547;28;20388;-73
2022/06/11 08:01:09;;;;;;;11.80;1.85;;;24.70;76.30;;;;;;5018603;28;20040;-73
2022/06/11 08:03:38;;;;;;;6.10;1.00;;;24.80;77.20;;;;;;5022948;28;20033;-73
2022/06/11 08:06:05;;;;;;;4.45;1.30;;;24.70;76.40;;;;;;5018194;28;20124;-73
2022/06/11 08:08:31;;;;;;;2.25;0.90;;;24.60;75.70;;;;;;5023888;28;20073;-73
2022/06/11 08:10:58;;;;;;;8.25;1.10;;;24.40;77.50;;;;;;5020542;28;20064;-73
2022/06/11 08:13:25;;;;;;;2.00;0.80;;;24.70;76.80;;;;;;5024680;28;20091;-74
2022/06/11 08:15:53;;;;;;;1.70;0.95;;;24.70;74.80;;;;;;5023930;28;20025;-73
2022/06/11 08:18:22;;;;;;;2.05;1.00;;;24.50;75.90;;;;;;5014304;28;20025;-73
2022/06/11 08:20:49;;;;;;;3.67;0.93;;;24.60;77.50;;;;;;5021117;28;20447;-73
2022/06/11 08:23:16;;;;;;;2.20;0.88;;;24.50;77.70;;;;;;5018794;28;20119;-74
2022/06/11 08:25:41;;;;;;;2.63;1.00;;;24.80;76.80;;;;;;5024069;28;20072;-73
2022/06/11 08:28:10;;;;;;;1.80;0.80;;;24.70;76.50;;;;;;5026041;28;20069;-74
2022/06/11 08:30:36;;;;;;;5.00;0.80;;;24.80;75.90;;;;;;5016452;28;20064;-73
2022/06/11 08:33:02;;;;;;;3.40;1.00;;;25.00;77.10;;;;;;5026042;28;20041;-74
2022/06/11 08:35:30;;;;;;;2.67;1.20;;;25.00;76.20;;;;;;5022164;28;20033;-73
2022/06/11 08:37:56;;;;;;;2.55;0.70;;;24.90;73.40;;;;;;5021890;28;20036;-73
2022/06/11 08:40:25;;;;;;;1.45;0.80;;;24.70;73.00;;;;;;5023215;28;20029;-74
2022/06/11 08:43:08;;;;;;;2.30;0.90;;;24.80;73.30;;;;;;5023793;28;20034;-74
2022/06/11 08:45:44;;;;;;;7.28;1.40;;;25.00;75.50;;;;;;5025783;28;20060;-74
2022/06/11 08:48:17;;;;;;;7.32;0.80;;;25.20;76.40;;;;;;5020190;28;20044;-74
2022/06/11 08:50:52;;;;;;;1.23;0.70;;;25.20;72.90;;;;;;5020517;28;20549;-74
2022/06/11 08:53:20;;;;;;;1.45;0.80;;;24.70;72.30;;;;;;5022278;28;20025;-74
2022/06/11 08:55:46;;;;;;;2.30;0.93;;;25.10;74.90;;;;;;5017896;28;20026;-74
2022/06/11 08:58:26;;;;;;;1.90;0.90;;;25.10;74.70;;;;;;5024885;28;20025;-74
2022/06/11 09:00:58;;;;;;;1.25;0.70;;;25.30;72.90;;;;;;5025024;28;20602;-73
2022/06/11 09:03:57;;;;;;;1.15;0.73;;;25.30;71.50;;;;;;5022936;28;20037;-74
2022/06/11 09:06:36;;;;;;;2.13;0.70;;;25.20;73.50;;;;;;5017088;28;20052;-74
2022/06/11 09:09:35;;;;;;;1.33;0.75;;;25.50;73.70;;;;;;5023078;28;20088;-74
2022/06/11 09:12:08;;;;;;;1.85;0.98;;;25.50;72.30;;;;;;5006192;28;20059;-74
2022/06/11 09:14:53;;;;;;;1.52;0.73;;;25.70;75.80;;;;;;5023393;28;20084;-74
2022/06/11 09:17:31;;;;;;;1.35;0.80;;;25.40;72.80;;;;;;5024918;28;20033;-73
2022/06/11 09:20:11;;;;;;;1.70;0.63;;;25.60;73.20;;;;;;5025149;28;20863;-74
2022/06/11 09:23:02;;;;;;;1.67;0.80;;;25.80;73.70;;;;;;5024689;28;20030;-74
2022/06/11 09:25:31;;;;;;;2.20;0.65;;;25.80;73.10;;;;;;5022032;28;20533;-73
2022/06/11 09:28:07;;;;;;;8.95;1.48;;;26.10;74.60;;;;;;5017346;28;20035;-74
2022/06/11 09:30:41;;;;;;;1.88;0.95;;;26.00;74.40;;;;;;5015983;28;20053;-74
2022/06/11 09:33:11;;;;;;;;;;;25.90;74.30;;;;;;5025658;28;20033;-74
2022/06/11 09:35:55;;;;;;;13.65;1.63;;;26.20;74.60;;;;;;5024052;28;19913;-74
2022/06/11 09:38:32;;;;;;;1.48;0.68;;;26.10;74.50;;;;;;5023651;28;20527;-74
2022/06/11 09:41:24;;;;;;;1.73;0.80;;;26.10;75.00;;;;;;5022550;28;20108;-74
2022/06/11 09:43:56;;;;;;;2.35;0.63;;;26.40;76.30;;;;;;5004122;28;20479;-74
2022/06/11 09:46:31;;;;;;;1.73;0.73;;;26.40;74.20;;;;;;5019126;28;20087;-74
2022/06/11 09:49:08;;;;;;;2.42;1.00;;;26.10;72.00;;;;;;5023525;28;20150;-74
2022/06/11 09:51:57;;;;;;;1.83;1.00;;;26.50;77.00;;;;;;5024311;28;20053;-74
2022/06/11 09:54:34;;;;;;;7.63;0.90;;;26.80;74.40;;;;;;5014762;28;20044;-74
2022/06/11 09:57:14;;;;;;;3.65;0.82;;;27.00;74.70;;;;;;5023717;28;20484;-74
2022/06/11 10:00:10;;;;;;;2.67;0.90;;;26.90;73.10;;;;;;5014563;28;20037;-74
2022/06/11 10:03:01;;;;;;;1.88;0.70;;;26.80;73.40;;;;;;5013868;28;20337;-74
2022/06/11 10:05:37;;;;;;;1.98;0.90;;;26.90;72.80;;;;;;5022524;28;20033;-74
2022/06/11 10:08:40;;;;;;;2.22;0.90;;;27.10;74.20;;;;;;5023092;28;20574;-74
2022/06/11 10:11:31;;;;;;;2.05;1.00;;;27.20;73.30;;;;;;5022881;28;20488;-74
2022/06/11 10:17:03;;;;;;;2.08;1.08;;;27.60;73.10;;;;;;5020821;28;21042;-74
2022/06/11 10:19:38;;;;;;;2.05;0.75;;;27.70;73.20;;;;;;5024502;28;20110;-74
2022/06/11 10:22:16;;;;;;;12.18;1.30;;;27.20;73.40;;;;;;5023452;28;20109;-74
2022/06/11 10:24:53;;;;;;;2.05;0.90;;;26.60;72.40;;;;;;5017206;28;20043;-74
2022/06/11 10:27:21;;;;;;;1.73;0.90;;;26.80;74.00;;;;;;5023200;28;20040;-74
2022/06/11 10:29:52;;;;;;;1.92;0.88;;;27.20;74.80;;;;;;5023430;28;20037;-74
2022/06/11 10:32:27;;;;;;;2.03;0.82;;;27.20;72.60;;;;;;5020125;28;20044;-74
2022/06/11 10:35:00;;;;;;;2.95;0.73;;;27.50;74.00;;;;;;5023198;28;20348;-73
2022/06/11 10:37:47;;;;;;;1.48;1.05;;;27.50;72.70;;;;;;5020522;28;20029;-74
2022/06/11 10:40:30;;;;;;;2.00;0.82;;;27.90;75.80;;;;;;5023706;28;20033;-74
2022/06/11 10:43:20;;;;;;;1.88;0.63;;;28.10;72.80;;;;;;5021873;28;20034;-74
2022/06/11 10:45:48;;;;;;;1.10;0.63;;;28.00;74.30;;;;;;5025140;28;20026;-73
2022/06/11 10:48:20;;;;;;;1.77;0.75;;;28.20;75.00;;;;;;5023507;28;20041;-74
2022/06/11 10:50:47;;;;;;;2.35;0.75;;;28.30;75.30;;;;;;5022839;28;20034;-75
2022/06/11 10:53:36;;;;;;;1.67;0.95;;;28.20;74.30;;;;;;5020346;28;20029;-75
2022/06/11 10:56:18;;;;;;;3.35;0.85;;;28.50;73.80;;;;;;5026123;28;20087;-75
2022/06/11 10:59:15;;;;;;;1.17;0.70;;;28.70;73.90;;;;;;5027349;28;20033;-75
2022/06/11 11:01:49;;;;;;;1.15;0.60;;;28.50;72.30;;;;;;4985404;28;20529;-75
2022/06/11 11:04:14;;;;;;;1.58;0.70;;;28.60;71.80;;;;;;5026200;28;20068;-75
2022/06/11 11:06:42;;;;;;;1.95;0.75;;;28.80;74.00;;;;;;5027513;28;20037;-75
2022/06/11 11:09:12;;;;;;;2.25;0.60;;;28.90;70.90;;;;;;5023397;28;20095;-75
2022/06/11 11:11:45;;;;;;;1.63;0.80;;;29.20;70.80;;;;;;5020906;28;20033;-75
2022/06/11 11:14:30;;;;;;;1.70;0.85;;;29.00;70.90;;;;;;5023948;28;20029;-76
2022/06/11 11:16:59;;;;;;;1.30;0.50;;;28.90;72.70;;;;;;5025899;28;20060;-75
2022/06/11 11:19:29;;;;;;;3.33;0.60;;;28.50;70.00;;;;;;5022958;28;20100;-75
2022/06/11 11:22:21;;;;;;;3.20;1.10;;;28.00;68.50;;;;;;5023140;28;20574;-75
2022/06/11 11:24:51;;;;;;;1.35;0.65;;;28.10;70.60;;;;;;5018533;28;20048;-75
2022/06/11 11:27:34;;;;;;;1.98;0.65;;;28.90;70.10;;;;;;5027056;28;20018;-75
2022/06/11 11:30:13;;;;;;;2.40;0.60;;;29.40;72.90;;;;;;5022663;28;20488;-75
2022/06/11 11:32:40;;;;;;;1.25;0.70;;;29.50;70.10;;;;;;5016956;28;20948;-75
2022/06/11 11:35:26;;;;;;;1.33;0.63;;;28.90;68.20;;;;;;5026449;28;20037;-75
2022/06/11 11:38:00;;;;;;;1.13;0.60;;;29.10;69.70;;;;;;5025701;28;20037;-75
2022/06/11 11:40:29;;;;;;;2.42;0.70;;;29.30;68.10;;;;;;5026226;28;20519;-75
2022/06/11 11:42:57;;;;;;;1.40;0.50;;;29.50;67.70;;;;;;5028933;28;20033;-75
2022/06/11 11:45:40;;;;;;;1.13;0.52;;;29.40;68.00;;;;;;5016999;28;20034;-75
2022/06/11 11:48:07;;;;;;;1.77;0.80;;;29.50;68.00;;;;;;5026217;28;20037;-76
2022/06/11 11:50:36;;;;;;;1.33;0.60;;;29.40;68.00;;;;;;5015088;28;20033;-76
2022/06/11 11:53:21;;;;;;;1.52;0.85;;;29.10;68.10;;;;;;5026092;28;20490;-75
2022/06/11 11:56:00;;;;;;;1.23;0.50;;;29.30;72.60;;;;;;5026652;28;20053;-76
2022/06/11 11:58:34;;;;;;;1.33;0.50;;;29.60;66.60;;;;;;5018123;28;20492;-76
2022/06/11 12:01:07;;;;;;;;;;;29.30;64.50;;;;;;5025051;28;20065;-76
2022/06/11 12:03:45;;;;;;;1.23;0.60;;;29.30;70.50;;;;;;5025978;28;19917;-74
2022/06/11 12:06:15;;;;;;;1.67;0.80;;;29.50;70.30;;;;;;5020857;28;20032;-74
2022/06/11 12:08:51;;;;;;;1.38;0.70;;;29.80;68.30;;;;;;5011888;28;20590;-74
2022/06/11 12:11:23;;;;;;;1.40;0.68;;;29.50;69.70;;;;;;5021032;28;20033;-74
2022/06/11 12:13:51;;;;;;;1.48;0.68;;;29.80;70.50;;;;;;5018631;28;20036;-73
2022/06/11 12:16:31;;;;;;;1.55;0.60;;;30.00;71.80;;;;;;5023509;28;20112;-74
2022/06/11 12:19:13;;;;;;;1.42;0.80;;;30.30;71.10;;;;;;5012506;28;20033;-75
2022/06/11 12:21:42;;;;;;;1.58;0.70;;;29.90;69.90;;;;;;5024254;28;20144;-75
2022/06/11 12:24:20;;;;;;;1.10;0.70;;;29.70;70.60;;;;;;5013673;28;20599;-77
2022/06/11 12:26:55;;;;;;;0.95;0.57;;;29.70;66.20;;;;;;5018970;28;20037;-75
2022/06/11 12:29:43;;;;;;;1.98;0.57;;;29.70;67.80;;;;;;5013397;28;20042;-75
2022/06/11 12:32:20;;;;;;;0.45;0.30;;;29.70;67.80;;;;;;5024814;28;20073;-76
2022/06/11 12:34:47;;;;;;;1.10;0.57;;;30.00;69.30;;;;;;5015179;28;20067;-75
2022/06/11 12:37:27;;;;;;;0.70;0.50;;;30.00;66.60;;;;;;5023607;28;20436;-77
2022/06/11 12:40:20;;;;;;;1.08;0.57;;;30.20;67.00;;;;;;5025710;28;20030;-76
2022/06/11 12:43:00;;;;;;;1.75;0.52;;;30.40;67.40;;;;;;5021520;28;20033;-76
2022/06/11 12:45:46;;;;;;;1.25;0.60;;;30.20;64.80;;;;;;5025522;28;20049;-77
2022/06/11 12:48:24;;;;;;;1.60;0.65;;;30.10;64.90;;;;;;5019228;28;20432;-75
2022/06/11 12:51:16;;;;;;;3.20;0.70;;;30.30;65.50;;;;;;5019633;28;20067;-76
2022/06/11 12:53:52;;;;;;;2.03;0.40;;;30.30;64.10;;;;;;5019238;28;20022;-76
2022/06/11 12:57:00;;;;;;;0.77;0.55;;;30.40;65.80;;;;;;5015401;28;20120;-76
2022/06/11 12:59:42;;;;;;;2.83;0.52;;;30.70;67.00;;;;;;5006056;28;20540;-75
2022/06/11 13:02:13;;;;;;;0.85;0.35;;;30.70;64.70;;;;;;5021605;28;20049;-76
2022/06/11 13:04:58;;;;;;;2.10;0.35;;;30.40;64.70;;;;;;5018710;28;20061;-75
2022/06/11 13:07:26;;;;;;;0.95;0.70;;;30.50;62.90;;;;;;5024368;28;20033;-75
2022/06/11 13:10:08;;;;;;;1.05;0.50;;;30.50;63.20;;;;;;5018728;28;20037;-76
2022/06/11 13:12:48;;;;;;;1.13;0.73;;;30.80;65.60;;;;;;5014595;28;20416;-75
2022/06/11 13:15:26;;;;;;;2.35;0.40;;;30.70;64.30;;;;;;5020762;28;20079;-76
2022/06/11 13:18:07;;;;;;;1.00;0.60;;;30.80;63.00;;;;;;5023558;28;20060;-76
2022/06/11 13:20:54;;;;;;;1.30;0.63;;;30.80;60.70;;;;;;5020738;28;20073;-76